CheckWX is a tool to help pilots better visualize weather data.  It is not intended as a substitute for an official pre-flight weather briefing.

10:32:51 UTC

KSZL TAF
Whiteman AFB Airport
Knob Noster, Missouri, USA
TAF AMD KSZL 140930Z 1409/1509 32015G25KT 9999 BKN040 QNH2976INS TEMPO 1410/1414 BKN010 BECMG 1414/1415 34010G15KT 9999 BKN030 QNH2986INS BECMG 1500/1501 36009KT 9999 BKN100 QNH2993INS TX02/1409Z TNM01/1415Z

Dec-14@
09:00 UTC

Dec-14 @ 09:00 UTC

Dec-14@
14:00 UTC

Dec-14 @ 14:00 UTC

TAF AMD KSZL 140930Z 1409/1509 32015G25KT 9999 BKN040 QNH2976INS
Wind
  • 320° at 15 KTS
  • {Gusting to 25 KTS
Cloud Levels
  • Broken at 4,000' AGL

Dec-14@
10:00 UTC

Dec-14 @ 10:00 UTC

Dec-14@
14:00 UTC

Dec-14 @ 14:00 UTC

TEMPO 1410/1414 BKN010

Temporary

Temporary Changes expected for less than half the time period

Cloud Levels
  • Broken at 1,000' AGL

Dec-14@
14:00 UTC

Dec-14 @ 14:00 UTC

Dec-15@
00:00 UTC

Dec-15 @ 00:00 UTC

BECMG 1414/1415 34010G15KT 9999 BKN030 QNH2986INS

Becoming

Becoming Conditions expected by Sat, Dec 14, 2019 @ 15:00 UTC

Wind
  • 340° at 10 KTS
  • {Gusting to 15 KTS
Cloud Levels
  • Broken at 3,000' AGL

Dec-15@
00:00 UTC

Dec-15 @ 00:00 UTC

Dec-15@
09:00 UTC

Dec-15 @ 09:00 UTC

BECMG 1500/1501 36009KT 9999 BKN100 QNH2993INS TX02/1409Z TNM01/1415Z

Becoming

Becoming Conditions expected by Sun, Dec 15, 2019 @ 01:00 UTC

Wind
  • 360° at 9 KTS
Cloud Levels
  • Broken at 10,000' AGL